createdAt,value
2023-06-04T00:00:38.307Z,6.70
2023-06-04T00:03:05.842Z,7.40
2023-06-04T00:05:33.347Z,7.00
2023-06-04T00:08:01.101Z,6.70
2023-06-04T00:10:28.497Z,6.80
2023-06-04T00:12:55.947Z,7.10
2023-06-04T00:15:23.494Z,7.40
2023-06-04T00:17:50.877Z,6.60
2023-06-04T00:20:18.972Z,6.30
2023-06-04T00:22:46.423Z,6.40
2023-06-04T00:25:13.919Z,6.40
2023-06-04T00:27:41.401Z,6.00
2023-06-04T00:30:09.400Z,6.70
2023-06-04T00:32:38.044Z,6.20
2023-06-04T00:35:06.118Z,6.00
2023-06-04T00:37:33.974Z,5.90
2023-06-04T00:40:01.690Z,5.40
2023-06-04T00:42:29.123Z,5.10
2023-06-04T00:44:58.837Z,5.70
2023-06-04T00:47:26.391Z,5.20
2023-06-04T00:49:57.157Z,5.30
2023-06-04T00:52:24.584Z,6.00
2023-06-04T00:54:52.664Z,5.30
2023-06-04T00:57:20.115Z,5.20
2023-06-04T00:59:47.721Z,4.80
2023-06-04T01:02:21.312Z,4.80
2023-06-04T01:05:37.898Z,5.10
2023-06-04T01:08:05.600Z,5.40
2023-06-04T01:10:33.389Z,5.60
2023-06-04T01:13:00.892Z,5.00
2023-06-04T01:15:28.407Z,5.10
2023-06-04T01:18:04.055Z,4.80
2023-06-04T01:20:39.558Z,4.60
2023-06-04T01:23:36.443Z,4.30
2023-06-04T01:26:06.996Z,4.80
2023-06-04T01:28:35.872Z,4.20
2023-06-04T01:31:04.300Z,5.00
2023-06-04T01:33:32.204Z,4.90
2023-06-04T01:35:59.705Z,5.40
2023-06-04T01:38:27.339Z,5.00
2023-06-04T01:41:02.637Z,5.30
2023-06-04T01:43:30.677Z,5.50
2023-06-04T01:45:58.596Z,6.30
2023-06-04T01:48:26.149Z,5.80
2023-06-04T01:50:53.626Z,6.20
2023-06-04T01:53:21.401Z,6.40
2023-06-04T01:55:50.398Z,5.80
2023-06-04T01:58:27.902Z,6.20
2023-06-04T02:00:56.312Z,6.00
2023-06-04T02:03:24.188Z,5.90
2023-06-04T02:05:51.805Z,5.70
2023-06-04T02:08:20.292Z,5.20
2023-06-04T02:10:48.904Z,6.20
2023-06-04T02:13:16.657Z,5.60
2023-06-04T02:15:44.202Z,6.00
2023-06-04T02:18:18.124Z,5.90
2023-06-04T02:20:46.240Z,5.70
2023-06-04T02:23:13.824Z,6.60
2023-06-04T02:25:41.271Z,7.10
2023-06-04T02:28:09.266Z,6.60
2023-06-04T02:30:37.097Z,6.60
2023-06-04T02:33:05.080Z,6.30
2023-06-04T02:35:32.828Z,6.50
2023-06-04T02:38:00.848Z,6.80
2023-06-04T02:40:30.810Z,7.00
2023-06-04T02:42:58.260Z,5.40
2023-06-04T02:45:26.355Z,5.60
2023-06-04T02:47:53.920Z,5.70
2023-06-04T02:50:21.529Z,5.00
2023-06-04T02:52:48.932Z,6.00
2023-06-04T02:55:16.954Z,6.10
2023-06-04T02:57:44.653Z,7.50
2023-06-04T03:00:13.821Z,8.80
2023-06-04T03:02:48.029Z,8.80
2023-06-04T03:05:16.851Z,9.10
2023-06-04T03:07:46.257Z,9.40
2023-06-04T03:10:14.475Z,9.20
2023-06-04T03:12:42.030Z,8.40
2023-06-04T03:15:10.180Z,8.70
2023-06-04T03:17:38.391Z,7.20
2023-06-04T03:20:08.263Z,7.30
2023-06-04T03:22:36.821Z,7.10
2023-06-04T03:25:05.491Z,6.40
2023-06-04T03:27:33.513Z,6.50
2023-06-04T03:30:01.096Z,6.30
2023-06-04T03:32:32.568Z,5.30
2023-06-04T03:35:01.384Z,5.80
2023-06-04T03:37:29.106Z,5.00
2023-06-04T03:39:56.764Z,4.00
2023-06-04T03:42:24.160Z,4.40
2023-06-04T03:44:51.907Z,3.90
2023-06-04T03:47:20.936Z,3.90
2023-06-04T03:49:48.485Z,3.30
2023-06-04T03:52:16.221Z,4.00
2023-06-04T03:54:43.696Z,3.80
2023-06-04T03:57:11.268Z,4.20
2023-06-04T03:59:38.674Z,4.00
2023-06-04T04:02:07.120Z,3.60
2023-06-04T04:04:34.947Z,3.90
2023-06-04T04:07:03.248Z,3.40
2023-06-04T04:09:31.030Z,3.10
2023-06-04T04:11:58.553Z,3.10
2023-06-04T04:14:26.392Z,4.00
2023-06-04T04:16:53.896Z,3.40
2023-06-04T04:19:21.894Z,3.30
2023-06-04T04:21:49.645Z,5.10
2023-06-04T04:24:25.129Z,5.30
2023-06-04T04:26:55.786Z,5.80
2023-06-04T04:29:23.812Z,5.20
2023-06-04T04:31:51.978Z,5.80
2023-06-04T04:34:22.849Z,5.40
2023-06-04T04:36:53.975Z,6.10
2023-06-04T04:39:25.818Z,5.20
2023-06-04T04:41:55.600Z,6.70
2023-06-04T04:44:23.226Z,7.70
2023-06-04T04:46:51.254Z,7.00
2023-06-04T04:49:18.996Z,6.70
2023-06-04T04:51:46.393Z,6.20
2023-06-04T04:54:14.145Z,6.30
2023-06-04T04:56:42.577Z,5.60
2023-06-04T05:01:38.461Z,3.50
2023-06-04T05:04:08.777Z,3.80
2023-06-04T05:06:38.759Z,3.50
2023-06-04T05:09:06.890Z,3.10
2023-06-04T05:11:34.354Z,3.90
2023-06-04T05:14:03.851Z,3.10
2023-06-04T05:16:31.966Z,3.80
2023-06-04T05:18:59.896Z,4.00
2023-06-04T05:21:30.251Z,4.10
2023-06-04T05:24:01.879Z,2.70
2023-06-04T05:26:34.339Z,2.50
2023-06-04T05:29:06.844Z,2.60
2023-06-04T05:31:38.125Z,2.80
2023-06-04T05:34:06.452Z,3.40
2023-06-04T05:36:35.550Z,2.40
2023-06-04T05:39:05.438Z,2.40
2023-06-04T05:41:38.571Z,2.30
2023-06-04T05:44:06.604Z,2.50
2023-06-04T05:46:34.162Z,1.90
2023-06-04T05:49:02.487Z,2.10
2023-06-04T05:51:30.381Z,2.10
2023-06-04T05:53:58.017Z,2.30
2023-06-04T05:56:26.868Z,2.00
2023-06-04T05:58:54.966Z,2.00
2023-06-04T06:01:24.631Z,2.30
2023-06-04T06:03:52.747Z,2.30
2023-06-04T06:06:22.158Z,2.20
2023-06-04T06:08:50.806Z,1.70
2023-06-04T06:11:19.006Z,2.20
2023-06-04T06:13:46.749Z,2.30
2023-06-04T06:16:15.022Z,2.70
2023-06-04T06:18:42.470Z,2.50
2023-06-04T06:21:09.878Z,2.60
2023-06-04T06:23:37.844Z,2.50
2023-06-04T06:26:09.371Z,2.20
2023-06-04T06:28:43.538Z,2.50
2023-06-04T06:31:11.897Z,2.40
2023-06-04T06:33:42.732Z,2.00
2023-06-04T06:36:20.214Z,2.20
2023-06-04T06:38:47.715Z,1.90
2023-06-04T06:41:15.186Z,1.80
2023-06-04T06:43:42.631Z,1.70
2023-06-04T06:46:15.011Z,1.70
2023-06-04T06:48:46.311Z,1.50
2023-06-04T06:51:14.083Z,2.50
2023-06-04T06:53:44.646Z,2.00
2023-06-04T06:56:12.077Z,1.90
2023-06-04T06:58:39.478Z,2.00
2023-06-04T07:01:07.626Z,1.90
2023-06-04T07:03:35.345Z,2.30
2023-06-04T07:06:03.451Z,2.20
2023-06-04T07:08:30.941Z,2.50
2023-06-04T07:10:58.862Z,2.30
2023-06-04T07:13:26.498Z,3.10
2023-06-04T07:15:54.366Z,2.80
2023-06-04T07:18:21.759Z,2.70
2023-06-04T07:20:49.171Z,3.30
2023-06-04T07:23:16.664Z,2.80
2023-06-04T07:25:44.121Z,2.30
2023-06-04T07:28:11.551Z,2.30
2023-06-04T07:30:39.434Z,2.60
2023-06-04T07:33:07.602Z,2.60
2023-06-04T07:35:35.144Z,2.40
2023-06-04T07:38:02.735Z,2.20
2023-06-04T07:40:30.233Z,2.40
2023-06-04T07:42:57.638Z,2.60
2023-06-04T07:45:26.315Z,2.20
2023-06-04T07:47:54.588Z,2.10
2023-06-04T07:50:21.962Z,2.50
2023-06-04T07:52:49.431Z,2.40
2023-06-04T07:55:16.865Z,2.00
2023-06-04T07:57:44.860Z,3.10
2023-06-04T08:00:19.097Z,2.00
2023-06-04T08:02:46.851Z,2.20
2023-06-04T08:05:15.028Z,1.70
2023-06-04T08:07:42.848Z,2.10
2023-06-04T08:10:10.991Z,2.20
2023-06-04T08:12:38.498Z,1.90
2023-06-04T08:15:06.808Z,1.50
2023-06-04T08:17:34.272Z,1.30
2023-06-04T08:20:02.145Z,1.40
2023-06-04T08:22:30.428Z,1.40
2023-06-04T08:24:57.853Z,1.10
2023-06-04T08:27:25.407Z,1.10
2023-06-04T08:29:53.415Z,1.00
2023-06-04T08:32:20.848Z,1.30
2023-06-04T08:34:48.374Z,1.20
2023-06-04T08:37:16.478Z,1.40
2023-06-04T08:39:43.962Z,1.30
2023-06-04T08:42:17.200Z,1.00
2023-06-04T08:44:44.848Z,1.10
2023-06-04T08:47:12.279Z,0.90
2023-06-04T08:49:39.736Z,1.00
2023-06-04T08:52:07.445Z,1.40
2023-06-04T08:54:35.185Z,1.70
2023-06-04T08:57:03.648Z,0.80
2023-06-04T08:59:31.206Z,1.20
2023-06-04T09:01:58.697Z,2.00
2023-06-04T09:04:26.144Z,0.90
2023-06-04T09:06:53.880Z,0.90
2023-06-04T09:09:23.573Z,0.50
2023-06-04T09:11:58.186Z,0.70
2023-06-04T09:14:25.937Z,0.60
2023-06-04T09:16:55.443Z,0.80
2023-06-04T09:19:23.252Z,0.80
2023-06-04T09:21:58.478Z,0.60
2023-06-04T09:24:27.224Z,1.00
2023-06-04T09:26:54.851Z,0.70
2023-06-04T09:29:22.303Z,0.70
2023-06-04T09:31:58.795Z,0.80
2023-06-04T09:34:32.732Z,0.60
2023-06-04T09:37:00.724Z,0.80
2023-06-04T09:39:28.347Z,0.70
2023-06-04T09:42:01.777Z,0.70
2023-06-04T09:44:32.794Z,0.60
2023-06-04T09:47:00.320Z,0.70
2023-06-04T09:49:28.021Z,1.10
2023-06-04T09:51:57.644Z,0.70
2023-06-04T09:54:25.021Z,0.90
2023-06-04T09:56:52.539Z,0.50
2023-06-04T09:59:19.945Z,0.70
2023-06-04T10:01:47.524Z,0.50
2023-06-04T10:04:15.040Z,0.70
2023-06-04T10:06:42.669Z,0.60
2023-06-04T10:09:10.706Z,0.70
2023-06-04T10:11:42.738Z,0.60
2023-06-04T10:14:19.162Z,0.80
2023-06-04T10:16:46.678Z,0.60
2023-06-04T10:19:14.104Z,0.70
2023-06-04T10:21:41.553Z,0.60
2023-06-04T10:24:09.220Z,0.70
2023-06-04T10:26:36.797Z,0.60
2023-06-04T10:29:04.377Z,0.70
2023-06-04T10:31:31.865Z,0.70
2023-06-04T10:33:59.471Z,0.90
2023-06-04T10:36:27.179Z,0.70
2023-06-04T10:38:56.407Z,0.70
2023-06-04T10:41:24.741Z,1.00
2023-06-04T10:43:53.557Z,0.90
2023-06-04T10:48:53.579Z,0.60
2023-06-04T10:51:34.442Z,0.90
2023-06-04T10:54:03.534Z,0.70
2023-06-04T10:56:33.376Z,1.00
2023-06-04T10:59:01.185Z,0.90
2023-06-04T11:01:30.054Z,0.80
2023-06-04T11:03:57.740Z,0.80
2023-06-04T11:06:29.180Z,1.00
2023-06-04T11:09:06.947Z,1.20
2023-06-04T11:11:34.532Z,0.70
2023-06-04T11:14:10.130Z,0.90
2023-06-04T11:16:37.667Z,0.90
2023-06-04T11:19:05.188Z,0.90
2023-06-04T11:21:35.561Z,0.70
2023-06-04T11:24:03.229Z,1.00
2023-06-04T11:26:40.410Z,0.60
2023-06-04T11:29:16.179Z,0.80
2023-06-04T11:31:44.239Z,1.20
2023-06-04T11:34:14.938Z,0.70
2023-06-04T11:36:42.421Z,0.60
2023-06-04T11:39:10.040Z,0.80
2023-06-04T11:41:37.519Z,0.80
2023-06-04T11:44:08.235Z,0.70
2023-06-04T11:46:41.196Z,0.90
2023-06-04T11:49:08.798Z,0.80
2023-06-04T11:51:37.290Z,1.00
2023-06-04T11:54:04.917Z,0.90
2023-06-04T11:56:32.361Z,1.00
2023-06-04T11:59:00.205Z,0.90
2023-06-04T12:01:30.115Z,0.80
2023-06-04T12:03:57.740Z,0.80
2023-06-04T12:06:25.271Z,0.70
2023-06-04T12:08:54.047Z,1.10
2023-06-04T12:11:30.006Z,1.00
2023-06-04T12:13:58.278Z,0.90
2023-06-04T12:16:26.208Z,0.70
2023-06-04T12:18:54.012Z,0.80
2023-06-04T12:21:28.619Z,0.90
2023-06-04T12:24:14.441Z,1.10
2023-06-04T12:26:42.954Z,1.30
2023-06-04T12:29:18.860Z,1.20
2023-06-04T12:31:47.358Z,0.80
2023-06-04T12:34:14.999Z,0.50
2023-06-04T12:36:44.157Z,0.90
2023-06-04T12:39:11.612Z,0.80
2023-06-04T12:41:39.132Z,0.80
2023-06-04T12:44:06.697Z,1.30
2023-06-04T12:46:34.244Z,0.70
2023-06-04T12:49:01.746Z,0.80
2023-06-04T12:51:29.225Z,1.40
2023-06-04T12:53:56.762Z,0.90
2023-06-04T13:02:54.044Z,0.90
2023-06-04T13:05:20.788Z,0.70
2023-06-04T13:07:48.445Z,0.80
2023-06-04T13:10:15.805Z,0.80
2023-06-04T13:12:42.843Z,1.10
2023-06-04T13:15:10.703Z,1.40
2023-06-04T13:17:37.642Z,0.90
2023-06-04T13:20:06.078Z,1.00
2023-06-04T13:22:33.414Z,0.90
2023-06-04T13:25:00.468Z,1.00
2023-06-04T13:33:57.035Z,1.90
2023-06-04T13:36:24.650Z,1.40
2023-06-04T13:38:53.885Z,0.90
2023-06-04T13:41:22.484Z,1.00
2023-06-04T13:43:50.546Z,1.00
2023-06-04T13:46:18.211Z,0.70
2023-06-04T13:48:45.804Z,1.40
2023-06-04T13:51:13.402Z,0.80
2023-06-04T13:53:40.979Z,1.90
2023-06-04T13:56:08.486Z,1.30
2023-06-04T13:58:36.026Z,1.10
2023-06-04T14:01:03.585Z,1.00
2023-06-04T14:03:31.200Z,1.10
2023-06-04T14:05:58.773Z,1.10
2023-06-04T14:08:26.268Z,0.80
2023-06-04T14:10:56.257Z,0.80
2023-06-04T14:13:23.825Z,2.00
2023-06-04T14:15:52.169Z,1.00
2023-06-04T14:18:19.796Z,0.90
2023-06-04T14:20:48.345Z,1.00
2023-06-04T14:23:17.776Z,1.40
2023-06-04T14:25:45.319Z,0.80
2023-06-04T14:28:12.904Z,1.10
2023-06-04T14:30:40.356Z,1.90
2023-06-04T14:33:07.869Z,1.40
2023-06-04T14:35:35.325Z,2.00
2023-06-04T14:38:03.284Z,2.30
2023-06-04T14:40:30.759Z,2.20
2023-06-04T14:42:58.830Z,1.40
2023-06-04T14:45:26.425Z,1.40
2023-06-04T14:48:06.439Z,1.50
2023-06-04T14:50:41.299Z,1.00
2023-06-04T14:53:09.331Z,1.30
2023-06-04T14:55:37.136Z,1.00
2023-06-04T14:58:05.113Z,1.20
2023-06-04T15:00:33.391Z,1.30
2023-06-04T15:03:04.410Z,1.10
2023-06-04T15:05:35.298Z,1.20
2023-06-04T15:08:03.152Z,1.30
2023-06-04T15:10:31.044Z,1.30
2023-06-04T15:12:58.581Z,1.30
2023-06-04T15:15:26.614Z,1.40
2023-06-04T15:17:54.338Z,1.00
2023-06-04T15:20:26.263Z,0.90
2023-06-04T15:22:54.291Z,1.30
2023-06-04T15:25:22.006Z,1.20
2023-06-04T15:27:49.663Z,1.30
2023-06-04T15:30:18.606Z,1.50
2023-06-04T15:32:46.472Z,0.90
2023-06-04T15:35:14.009Z,1.00
2023-06-04T15:37:41.544Z,1.20
2023-06-04T15:40:10.582Z,1.30
2023-06-04T15:42:38.091Z,1.20
2023-06-04T15:45:05.920Z,1.20
2023-06-04T15:47:33.375Z,1.00
2023-06-04T15:50:03.189Z,0.80
2023-06-04T15:52:30.847Z,2.10
2023-06-04T15:54:58.337Z,2.10
2023-06-04T15:57:26.480Z,1.10
2023-06-04T15:59:53.970Z,1.30
2023-06-04T16:02:21.423Z,1.50
2023-06-04T16:04:49.104Z,1.50
2023-06-04T16:07:16.668Z,1.20
2023-06-04T16:09:44.240Z,1.10
2023-06-04T16:12:11.843Z,1.10
2023-06-04T16:14:39.215Z,1.20
2023-06-04T16:17:06.797Z,1.40
2023-06-04T16:19:34.270Z,1.80
2023-06-04T16:22:01.763Z,1.30
2023-06-04T16:24:29.254Z,1.20
2023-06-04T16:26:56.809Z,1.50
2023-06-04T16:29:24.284Z,1.20
2023-06-04T16:31:52.097Z,1.20
2023-06-04T16:34:19.654Z,1.10
2023-06-04T16:36:47.286Z,1.40
2023-06-04T16:39:14.769Z,2.00
2023-06-04T16:41:42.210Z,1.70
2023-06-04T16:44:09.674Z,1.90
2023-06-04T16:46:42.151Z,2.10
2023-06-04T16:49:09.656Z,2.20
2023-06-04T16:51:38.557Z,2.00
2023-06-04T16:54:06.100Z,1.50
2023-06-04T16:56:33.568Z,1.80
2023-06-04T16:59:01.122Z,1.40
2023-06-04T17:01:28.763Z,2.00
2023-06-04T17:03:56.373Z,1.70
2023-06-04T17:06:23.927Z,1.70
2023-06-04T17:08:51.490Z,1.50
2023-06-04T17:11:19.547Z,1.70
2023-06-04T17:13:47.009Z,1.80
2023-06-04T17:16:14.796Z,1.80
2023-06-04T17:18:42.209Z,1.60
2023-06-04T17:21:11.054Z,1.70
2023-06-04T17:23:39.498Z,1.70
2023-06-04T17:26:07.833Z,1.70
2023-06-04T17:28:35.620Z,1.50
2023-06-04T17:31:04.074Z,1.80
2023-06-04T17:33:34.554Z,1.40
2023-06-04T17:36:02.547Z,1.40
2023-06-04T17:38:31.238Z,1.60
2023-06-04T17:40:58.689Z,1.50
2023-06-04T17:43:26.154Z,1.30
2023-06-04T17:45:54.933Z,1.10
2023-06-04T17:48:23.527Z,1.30
2023-06-04T17:50:50.991Z,1.10
2023-06-04T17:53:18.469Z,1.50
2023-06-04T17:55:46.136Z,1.40
2023-06-04T17:58:13.587Z,1.50
2023-06-04T18:00:44.487Z,1.50
2023-06-04T18:03:12.758Z,0.90
2023-06-04T18:05:41.065Z,1.10
2023-06-04T18:08:10.582Z,1.50
2023-06-04T18:10:39.808Z,1.20
2023-06-04T18:13:07.444Z,1.90
2023-06-04T18:15:35.004Z,1.30
2023-06-04T18:18:02.498Z,1.80
2023-06-04T18:20:30.267Z,2.00
2023-06-04T18:22:58.236Z,2.00
2023-06-04T18:25:26.467Z,1.80
2023-06-04T18:27:54.117Z,1.70
2023-06-04T18:30:21.608Z,3.60
2023-06-04T18:32:49.786Z,2.20
2023-06-04T18:35:17.325Z,1.50
2023-06-04T18:37:44.804Z,2.20
2023-06-04T18:40:13.522Z,1.70
2023-06-04T18:42:41.387Z,1.70
2023-06-04T18:45:10.592Z,1.90
2023-06-04T18:47:38.483Z,1.70
2023-06-04T18:50:06.977Z,2.10
2023-06-04T18:52:34.764Z,2.10
2023-06-04T18:55:02.267Z,2.60
2023-06-04T18:57:29.743Z,2.20
2023-06-04T18:59:57.348Z,2.40
2023-06-04T19:02:24.746Z,2.10
2023-06-04T19:04:52.328Z,2.10
2023-06-04T19:07:22.558Z,2.60
2023-06-04T19:09:50.116Z,2.10
2023-06-04T19:12:17.888Z,1.60
2023-06-04T19:14:45.438Z,2.10
2023-06-04T19:17:19.939Z,1.90
2023-06-04T19:19:48.601Z,2.50
2023-06-04T19:22:16.384Z,1.90
2023-06-04T19:24:43.930Z,1.80
2023-06-04T19:27:11.421Z,2.70
2023-06-04T19:29:43.741Z,2.50
2023-06-04T19:32:11.671Z,2.40
2023-06-04T19:34:39.195Z,3.10
2023-06-04T19:37:06.710Z,2.90
2023-06-04T19:39:34.262Z,2.90
2023-06-04T19:42:01.778Z,2.60
2023-06-04T19:44:29.264Z,2.90
2023-06-04T19:46:57.257Z,3.60
2023-06-04T19:49:24.752Z,3.20
2023-06-04T19:51:52.431Z,4.10
2023-06-04T19:54:19.861Z,3.70
2023-06-04T19:56:47.340Z,4.80
2023-06-04T19:59:16.296Z,5.50
2023-06-04T20:01:44.194Z,4.90
2023-06-04T20:04:12.581Z,4.20
2023-06-04T20:06:40.311Z,7.10
2023-06-04T20:09:11.022Z,4.10
2023-06-04T20:11:38.619Z,3.60
2023-06-04T20:14:06.874Z,3.30
2023-06-04T20:16:34.389Z,3.40
2023-06-04T20:19:01.824Z,4.10
2023-06-04T20:21:34.010Z,3.10
2023-06-04T20:24:03.377Z,3.70
2023-06-04T20:26:30.901Z,2.80
2023-06-04T20:28:58.394Z,3.00
2023-06-04T20:31:27.676Z,3.30
2023-06-04T20:33:58.363Z,2.80
2023-06-04T20:36:25.866Z,3.30
2023-06-04T20:38:53.490Z,3.30
2023-06-04T20:41:22.344Z,3.40
2023-06-04T20:43:54.830Z,4.00
2023-06-04T20:46:22.559Z,3.70
2023-06-04T20:48:50.247Z,3.10
2023-06-04T20:51:17.716Z,3.70
2023-06-04T20:53:48.527Z,2.90
2023-06-04T20:56:16.396Z,3.30
2023-06-04T20:58:43.846Z,4.10
2023-06-04T21:01:12.685Z,3.60
2023-06-04T21:03:40.334Z,2.80
2023-06-04T21:06:08.081Z,3.00
2023-06-04T21:08:35.622Z,3.70
2023-06-04T21:11:03.119Z,3.40
2023-06-04T21:13:36.452Z,3.10
2023-06-04T21:16:03.975Z,3.30
2023-06-04T21:18:31.448Z,2.70
2023-06-04T21:20:58.910Z,2.60
2023-06-04T21:23:26.962Z,2.60
2023-06-04T21:25:54.376Z,2.70
2023-06-04T21:28:21.822Z,2.90
2023-06-04T21:30:49.302Z,3.10
2023-06-04T21:33:16.705Z,3.00
2023-06-04T21:35:44.058Z,2.70
2023-06-04T21:38:11.534Z,3.00
2023-06-04T21:40:38.962Z,2.20
2023-06-04T21:43:06.358Z,2.90
2023-06-04T21:45:34.330Z,3.00
2023-06-04T21:48:02.448Z,3.10
2023-06-04T21:50:29.900Z,2.60
2023-06-04T21:52:57.331Z,2.70
2023-06-04T21:55:25.229Z,3.00
2023-06-04T21:57:52.672Z,2.70
2023-06-04T22:00:20.324Z,2.40
2023-06-04T22:02:47.964Z,2.60
2023-06-04T22:05:15.503Z,2.60
2023-06-04T22:07:42.956Z,2.50
2023-06-04T22:10:10.662Z,2.10
2023-06-04T22:12:39.141Z,2.30
2023-06-04T22:15:07.666Z,2.60
2023-06-04T22:17:35.078Z,2.70
2023-06-04T22:20:02.961Z,2.30
2023-06-04T22:22:30.780Z,2.20
2023-06-04T22:24:58.526Z,2.10
2023-06-04T22:27:26.515Z,2.60
2023-06-04T22:29:53.931Z,2.40
2023-06-04T22:32:21.338Z,2.30
2023-06-04T22:34:49.139Z,2.20
2023-06-04T22:37:16.582Z,3.20
2023-06-04T22:39:43.975Z,2.20
2023-06-04T22:42:11.405Z,2.00
2023-06-04T22:44:39.105Z,2.20
2023-06-04T22:47:09.344Z,2.00
2023-06-04T22:49:36.938Z,2.20
2023-06-04T22:52:04.547Z,2.10
2023-06-04T22:54:32.033Z,2.20
2023-06-04T22:56:59.669Z,2.30
2023-06-04T22:59:27.610Z,2.30
2023-06-04T23:01:55.007Z,2.00
2023-06-04T23:06:04.975Z,2.00
2023-06-04T23:08:33.128Z,2.20
2023-06-04T23:11:00.607Z,2.10
2023-06-04T23:13:28.640Z,1.80
2023-06-04T23:15:58.266Z,2.20
2023-06-04T23:18:26.322Z,2.20
2023-06-04T23:20:53.920Z,1.90
2023-06-04T23:31:00.657Z,2.00
2023-06-04T23:33:28.196Z,2.00
2023-06-04T23:35:55.966Z,2.50
2023-06-04T23:38:23.409Z,2.30
2023-06-04T23:40:50.949Z,2.10
2023-06-04T23:43:18.441Z,2.10
2023-06-04T23:45:46.180Z,2.10
2023-06-04T23:48:13.802Z,2.00
2023-06-04T23:50:41.627Z,2.70
2023-06-04T23:53:09.108Z,2.30
2023-06-04T23:55:38.388Z,2.30
2023-06-04T23:58:06.654Z,2.00
